Bandar-E Mahshahr, Iran
Current Conditions -  °F | °C
As of 7:00 AM on Friday 28 Nov 2014 (Local Time) from OIAM Reporting Station
Haze Haze  
Wind Chill: 54°   Ceiling: 4000
Heat Index: 54°   Visibility: 0.75mi
Dew Point: 50°   Wind: 0mph
Humidity: 88%   Direction: NA
Pressure: 30.06"   Gusts: NA
Location:  30.65°N, 49.22°E
Report Text: OIAM 280400Z 00000KT 1200 BR BKN040 12/10 Q1018
Loading
Personal Weather Stations






























Interactive Weather Map New forecast layout! Learn more

10-Day Weather Forecast

Advertisements
Track Severe Weather on mobile